首页
METAR-TAF:

METAR-TAF

机场 :

什切青, 波兰

纬度: 53-35N, 经度: 014-54E, 海拔: 1米

当前天气观测

该预报发布于26分钟前的13:00 UTC
风速12节,风向,在西北北转东北之间变化
温度 21°C
湿度 38%
气压 1014 hPa
能见度10公里或以上
1500米以下无云,无积雨云

METAR: EPSC 041300Z 35012KT 310V020 CAVOK 21/06 Q1014

时间: 15:26 (13:26 UTC)

预报

该预报发布于1小时和56分钟前的11:30 UTC
预报有效从04日的 12点(UTC)到 05日的 12点(UTC)
风速10节,风向北转西北
能见度10公里或以上
散云层高于4000英尺
成为
从 04日的 19点(UTC)到 04日的 21点(UTC)
风速2节,风向多变
成为
从 05日的 06点(UTC)到 05日的 08点(UTC)
风速10节,风向南转西南

TAF: EPSC 041130Z 0412/0512 34010KT 9999 SCT040 BECMG 0419/0421 VRB02KT BECMG 0506/0508 20010KT

超过4000个机场的气象观测和天气预报(METAR&TAF报告)。

可查询的气象台以黄色和红色小点在地图上表示。

将鼠标移到小点上方,可查看气象台名称。

然后点击查看天气观测和预报。

如需切换地图:点击带黑十字的绿色按钮放大地图;点击带横线的绿色按钮缩小地图;或者点击绿色箭头查看邻近地区的地图。


METAR-TAF: